createdAt,value
2017-09-25T00:01:41.102Z,16.33
2017-09-25T00:04:07.380Z,16.50
2017-09-25T00:06:33.674Z,17.43
2017-09-25T00:08:59.954Z,15.30
2017-09-25T00:11:26.218Z,16.60
2017-09-25T00:13:52.490Z,15.63
2017-09-25T00:16:18.755Z,15.03
2017-09-25T00:18:46.098Z,15.90
2017-09-25T00:21:12.379Z,15.17
2017-09-25T00:23:39.358Z,14.83
2017-09-25T00:26:05.666Z,14.73
2017-09-25T00:28:31.946Z,14.10
2017-09-25T00:30:58.205Z,14.47
2017-09-25T00:33:25.537Z,14.43
2017-09-25T00:35:51.853Z,12.20
2017-09-25T00:38:18.122Z,13.20
2017-09-25T00:40:44.430Z,13.40
2017-09-25T00:43:10.718Z,13.20
2017-09-25T00:45:36.990Z,13.90
2017-09-25T00:48:03.294Z,13.07
2017-09-25T00:50:29.618Z,13.50
2017-09-25T00:53:08.363Z,14.10
2017-09-25T00:55:47.770Z,14.60
2017-09-25T00:58:14.113Z,14.00
2017-09-25T01:00:53.302Z,13.23
2017-09-25T01:03:28.570Z,14.50
2017-09-25T01:06:08.354Z,12.70
2017-09-25T01:08:34.658Z,13.07
2017-09-25T01:11:00.966Z,12.97
2017-09-25T01:13:27.230Z,12.70
2017-09-25T01:15:54.247Z,12.30
2017-09-25T01:18:20.534Z,12.90
2017-09-25T01:20:46.817Z,13.20
2017-09-25T01:23:13.146Z,11.63
2017-09-25T01:25:39.440Z,12.70
2017-09-25T01:28:05.687Z,12.57
2017-09-25T01:30:31.970Z,13.13
2017-09-25T01:32:58.259Z,13.53
2017-09-25T01:35:24.538Z,13.30
2017-09-25T01:37:51.566Z,12.30
2017-09-25T01:40:17.826Z,12.40
2017-09-25T01:42:44.086Z,12.27
2017-09-25T01:45:10.346Z,11.20
2017-09-25T01:47:36.625Z,11.87
2017-09-25T01:50:02.891Z,11.43
2017-09-25T01:52:29.166Z,12.00
2017-09-25T01:54:55.445Z,11.00
2017-09-25T01:57:21.718Z,11.50
2017-09-25T01:59:47.970Z,10.90
2017-09-25T02:02:15.002Z,11.00
2017-09-25T02:04:41.278Z,12.20
2017-09-25T02:07:07.558Z,11.17
2017-09-25T02:09:34.586Z,12.03
2017-09-25T02:12:00.851Z,11.03
2017-09-25T02:14:27.114Z,11.00
2017-09-25T02:16:54.150Z,11.10
2017-09-25T02:19:20.410Z,12.20
2017-09-25T02:21:46.671Z,10.70
2017-09-25T02:24:13.722Z,11.17
2017-09-25T02:26:40.722Z,10.73
2017-09-25T02:29:07.970Z,11.50
2017-09-25T02:31:35.005Z,10.40
2017-09-25T02:34:01.266Z,11.50
2017-09-25T02:36:27.530Z,10.00
2017-09-25T02:38:54.566Z,11.23
2017-09-25T02:41:20.866Z,12.37
2017-09-25T02:43:47.150Z,9.73
2017-09-25T02:46:13.430Z,9.63
2017-09-25T02:48:40.440Z,10.40
2017-09-25T02:51:06.707Z,10.50
2017-09-25T02:53:32.994Z,11.60
2017-09-25T02:55:59.262Z,10.30
2017-09-25T02:58:27.590Z,10.00
2017-09-25T03:00:53.894Z,10.77
2017-09-25T03:03:20.170Z,10.00
2017-09-25T03:05:47.162Z,10.67
2017-09-25T03:08:13.470Z,10.45
2017-09-25T03:10:39.726Z,9.47
2017-09-25T03:13:05.990Z,9.80
2017-09-25T03:15:32.270Z,9.10
2017-09-25T03:17:59.278Z,10.80
2017-09-25T03:20:25.553Z,10.20
2017-09-25T03:22:51.875Z,10.57
2017-09-25T03:25:18.195Z,9.88
2017-09-25T03:27:44.430Z,10.10
2017-09-25T03:30:11.461Z,11.13
2017-09-25T03:32:37.745Z,11.10
2017-09-25T03:35:04.021Z,9.63
2017-09-25T03:37:30.318Z,9.77
2017-09-25T03:39:57.315Z,10.90
2017-09-25T03:42:23.590Z,9.48
2017-09-25T03:44:49.890Z,9.17
2017-09-25T03:47:16.134Z,9.40
2017-09-25T03:49:42.422Z,10.32
2017-09-25T03:52:08.718Z,10.38
2017-09-25T03:54:35.718Z,9.82
2017-09-25T03:57:02.014Z,9.63
2017-09-25T03:59:28.306Z,9.35
2017-09-25T04:01:54.558Z,9.90
2017-09-25T04:04:20.830Z,9.90
2017-09-25T04:06:47.142Z,10.15
2017-09-25T04:09:13.427Z,9.70
2017-09-25T04:11:40.434Z,11.00
2017-09-25T04:14:06.712Z,9.52
2017-09-25T04:16:33.014Z,9.27
2017-09-25T04:18:59.269Z,8.93
2017-09-25T04:21:25.570Z,9.38
2017-09-25T04:23:51.826Z,10.02
2017-09-25T04:26:18.850Z,8.93
2017-09-25T04:28:45.130Z,10.07
2017-09-25T04:31:11.383Z,8.90
2017-09-25T04:33:37.634Z,10.55
2017-09-25T04:36:03.950Z,9.90
2017-09-25T04:38:30.207Z,10.63
2017-09-25T04:40:56.479Z,9.95
2017-09-25T04:43:22.754Z,10.73
2017-09-25T04:45:49.761Z,10.65
2017-09-25T04:48:16.066Z,10.35
2017-09-25T04:50:42.341Z,10.60
2017-09-25T04:53:08.614Z,10.40
2017-09-25T04:55:34.910Z,10.15
2017-09-25T04:58:01.206Z,11.12
2017-09-25T05:00:27.467Z,10.80
2017-09-25T05:02:54.490Z,10.68
2017-09-25T05:05:21.511Z,11.40
2017-09-25T05:07:47.786Z,12.50
2017-09-25T05:10:14.063Z,14.13
2017-09-25T05:12:40.354Z,13.98
2017-09-25T05:15:06.634Z,15.13
2017-09-25T05:17:32.894Z,13.70
2017-09-25T05:19:59.183Z,12.37
2017-09-25T05:22:25.475Z,14.00
2017-09-25T05:24:51.745Z,14.48
2017-09-25T05:27:18.051Z,13.98
2017-09-25T05:29:45.046Z,13.25
2017-09-25T05:32:11.339Z,13.65
2017-09-25T05:34:37.639Z,15.70
2017-09-25T05:37:03.922Z,13.45
2017-09-25T05:39:30.222Z,13.73
2017-09-25T05:41:57.234Z,13.88
2017-09-25T05:44:23.485Z,13.45
2017-09-25T05:46:49.762Z,12.93
2017-09-25T05:49:16.038Z,13.25
2017-09-25T05:51:42.360Z,11.95
2017-09-25T05:54:08.637Z,14.32
2017-09-25T05:56:34.938Z,13.13
2017-09-25T05:59:01.222Z,13.18
2017-09-25T06:01:27.498Z,13.98
2017-09-25T06:03:53.810Z,13.68
2017-09-25T06:06:20.078Z,12.48
2017-09-25T06:08:46.369Z,11.55
2017-09-25T06:11:12.663Z,13.30
2017-09-25T06:13:38.925Z,13.20
2017-09-25T06:16:05.198Z,12.10
2017-09-25T06:18:31.502Z,11.73
2017-09-25T06:20:57.750Z,12.85
2017-09-25T06:23:24.019Z,13.07
2017-09-25T06:25:50.328Z,11.45
2017-09-25T06:28:17.330Z,11.82
2017-09-25T06:30:43.614Z,12.67
2017-09-25T06:33:09.888Z,11.60
2017-09-25T06:35:36.163Z,12.90
2017-09-25T06:38:02.459Z,13.97
2017-09-25T06:40:28.742Z,12.98
2017-09-25T06:42:55.027Z,13.13
2017-09-25T06:45:22.042Z,12.75
2017-09-25T06:47:49.090Z,14.73
2017-09-25T06:50:16.142Z,13.85
2017-09-25T06:52:42.405Z,15.17
2017-09-25T06:55:08.742Z,14.90
2017-09-25T06:57:36.482Z,16.17
2017-09-25T07:00:03.490Z,13.90
2017-09-25T07:02:29.832Z,14.33
2017-09-25T07:04:56.094Z,13.43
2017-09-25T07:07:22.385Z,13.73
2017-09-25T07:09:48.658Z,13.77
2017-09-25T07:12:15.186Z,12.60
2017-09-25T07:14:41.482Z,13.20
2017-09-25T07:17:07.771Z,13.23
2017-09-25T07:19:34.014Z,12.30
2017-09-25T07:22:00.289Z,12.17
2017-09-25T07:24:26.667Z,13.77
2017-09-25T07:26:52.919Z,11.10
2017-09-25T07:29:19.210Z,13.03
2017-09-25T07:31:45.490Z,12.83
2017-09-25T07:34:11.770Z,10.53
2017-09-25T07:36:38.034Z,11.43
2017-09-25T07:39:05.082Z,11.10
2017-09-25T07:41:32.083Z,10.70
2017-09-25T07:43:58.370Z,9.30
2017-09-25T07:46:24.714Z,9.67
2017-09-25T07:48:51.005Z,9.60
2017-09-25T07:51:17.330Z,9.90
2017-09-25T07:53:43.597Z,8.67
2017-09-25T07:56:09.882Z,8.47
2017-09-25T07:58:36.138Z,9.47
2017-09-25T08:01:02.462Z,9.07
2017-09-25T08:03:29.788Z,7.77
2017-09-25T08:05:56.070Z,8.40
2017-09-25T08:08:24.186Z,7.17
2017-09-25T08:10:50.455Z,7.70
2017-09-25T08:13:17.442Z,7.50
2017-09-25T08:15:43.746Z,7.10
2017-09-25T08:18:10.015Z,7.20
2017-09-25T08:20:37.026Z,7.13
2017-09-25T08:23:04.026Z,6.70
2017-09-25T08:25:30.277Z,6.80
2017-09-25T08:27:57.306Z,6.60
2017-09-25T08:30:26.365Z,6.57
2017-09-25T08:32:52.618Z,7.50
2017-09-25T08:35:18.882Z,7.90
2017-09-25T08:37:45.154Z,7.27
2017-09-25T08:40:11.419Z,6.37
2017-09-25T08:42:37.706Z,7.80
2017-09-25T08:45:05.038Z,8.07
2017-09-25T08:47:31.294Z,8.30
2017-09-25T08:49:57.555Z,8.70
2017-09-25T08:52:23.826Z,8.00
2017-09-25T08:54:50.110Z,9.30
2017-09-25T08:57:16.415Z,8.67
2017-09-25T08:59:42.686Z,8.10
2017-09-25T09:02:09.707Z,9.13
2017-09-25T09:04:36.690Z,9.20
2017-09-25T09:07:03.047Z,9.20
2017-09-25T09:09:29.338Z,8.03
2017-09-25T09:11:55.587Z,8.50
2017-09-25T09:14:21.910Z,9.83
2017-09-25T09:16:48.179Z,9.23
2017-09-25T09:19:15.567Z,8.77
2017-09-25T09:21:41.844Z,10.50
2017-09-25T09:24:08.114Z,8.07
2017-09-25T09:26:34.391Z,9.70
2017-09-25T09:29:00.662Z,9.37
2017-09-25T09:31:26.923Z,8.70
2017-09-25T09:33:53.952Z,11.33
2017-09-25T09:36:20.238Z,9.60
2017-09-25T09:38:46.515Z,9.43
2017-09-25T09:41:12.796Z,10.30
2017-09-25T09:43:39.061Z,9.97
2017-09-25T09:46:05.310Z,8.70
2017-09-25T09:48:32.327Z,8.87
2017-09-25T09:50:59.335Z,10.20
2017-09-25T09:53:25.610Z,9.20
2017-09-25T09:55:51.875Z,9.83
2017-09-25T09:58:18.267Z,8.23
2017-09-25T10:00:44.543Z,9.97
2017-09-25T10:03:10.834Z,10.47
2017-09-25T10:05:37.858Z,8.43
2017-09-25T10:08:04.114Z,9.80
2017-09-25T10:10:30.386Z,8.60
2017-09-25T10:12:57.390Z,8.80
2017-09-25T10:15:23.643Z,8.90
2017-09-25T10:17:49.921Z,8.30
2017-09-25T10:20:16.198Z,8.20
2017-09-25T10:22:42.497Z,7.50
2017-09-25T10:25:08.750Z,8.37
2017-09-25T10:27:35.034Z,7.23
2017-09-25T10:30:01.310Z,7.37
2017-09-25T10:32:27.566Z,7.10
2017-09-25T10:34:53.850Z,7.70
2017-09-25T10:37:20.114Z,7.47
2017-09-25T10:39:46.370Z,6.87
2017-09-25T10:42:13.378Z,7.33
2017-09-25T10:44:39.643Z,5.63
2017-09-25T10:47:05.878Z,5.70
2017-09-25T10:49:32.162Z,5.80
2017-09-25T10:51:58.782Z,5.90
2017-09-25T10:54:25.759Z,5.50
2017-09-25T10:56:52.054Z,6.40
2017-09-25T10:59:18.305Z,6.40
2017-09-25T11:01:44.563Z,6.77
2017-09-25T11:04:10.867Z,6.60
2017-09-25T11:06:38.219Z,6.17
2017-09-25T11:09:04.462Z,6.70
2017-09-25T11:11:30.766Z,7.13
2017-09-25T11:13:57.054Z,6.60
2017-09-25T11:16:23.322Z,6.80
2017-09-25T11:18:49.614Z,8.07
2017-09-25T11:21:15.862Z,7.80
2017-09-25T11:23:42.114Z,7.60
2017-09-25T11:26:08.390Z,7.47
2017-09-25T11:28:34.663Z,6.50
2017-09-25T11:31:00.922Z,6.33
2017-09-25T11:33:27.965Z,5.30
2017-09-25T11:35:55.346Z,5.20
2017-09-25T11:38:21.611Z,4.97
2017-09-25T11:40:47.911Z,5.17
2017-09-25T11:43:14.186Z,5.33
2017-09-25T11:45:40.439Z,5.07
2017-09-25T11:48:07.479Z,5.17
2017-09-25T11:50:33.726Z,5.07
2017-09-25T11:52:59.990Z,5.27
2017-09-25T11:55:27.026Z,4.67
2017-09-25T11:57:53.289Z,5.10
2017-09-25T12:00:19.554Z,4.20
2017-09-25T12:02:45.870Z,4.07
2017-09-25T12:05:12.127Z,4.13
2017-09-25T12:07:38.374Z,3.90
2017-09-25T12:10:04.671Z,4.80
2017-09-25T12:12:30.910Z,4.80
2017-09-25T12:14:57.159Z,3.70
2017-09-25T12:17:23.449Z,4.33
2017-09-25T12:19:49.699Z,4.10
2017-09-25T12:22:15.946Z,4.80
2017-09-25T12:24:42.238Z,3.77
2017-09-25T12:27:08.470Z,3.87
2017-09-25T12:29:34.731Z,3.97
2017-09-25T12:32:01.055Z,4.30
2017-09-25T12:34:27.310Z,4.93
2017-09-25T12:36:53.586Z,4.70
2017-09-25T12:39:19.855Z,4.43
2017-09-25T12:41:46.123Z,5.23
2017-09-25T12:44:12.394Z,4.77
2017-09-25T12:46:39.394Z,4.50
2017-09-25T12:49:05.703Z,5.07
2017-09-25T12:51:31.958Z,4.43
2017-09-25T12:53:58.247Z,4.10
2017-09-25T12:56:24.530Z,4.60
2017-09-25T12:58:50.821Z,4.67
2017-09-25T13:01:17.110Z,4.37
2017-09-25T13:03:44.404Z,4.90
2017-09-25T13:06:10.686Z,4.73
2017-09-25T13:08:36.974Z,4.90
2017-09-25T13:11:03.231Z,4.70
2017-09-25T13:13:29.488Z,4.07
2017-09-25T13:15:56.530Z,4.30
2017-09-25T13:18:22.791Z,4.37
2017-09-25T13:20:49.058Z,4.50
2017-09-25T13:23:17.194Z,4.80
2017-09-25T13:25:43.451Z,4.17
2017-09-25T13:28:10.487Z,3.90
2017-09-25T13:30:36.798Z,3.97
2017-09-25T13:33:03.793Z,4.43
2017-09-25T13:35:30.049Z,5.37
2017-09-25T13:37:56.354Z,4.27
2017-09-25T13:40:23.387Z,4.60
2017-09-25T13:42:50.395Z,4.07
2017-09-25T13:45:17.399Z,4.27
2017-09-25T13:47:43.687Z,5.47
2017-09-25T13:50:09.938Z,4.77
2017-09-25T13:52:36.206Z,5.33
2017-09-25T13:55:02.482Z,5.70
2017-09-25T13:57:29.502Z,5.67
2017-09-25T14:02:34.144Z,5.07
2017-09-25T14:05:00.447Z,4.60
2017-09-25T14:07:26.719Z,5.20
2017-09-25T14:09:52.999Z,5.07
2017-09-25T14:12:19.291Z,5.07
2017-09-25T14:14:45.579Z,4.67
2017-09-25T14:17:11.843Z,6.27
2017-09-25T14:19:38.118Z,4.97
2017-09-25T14:22:05.130Z,4.83
2017-09-25T14:24:31.399Z,5.67
2017-09-25T14:26:57.686Z,6.57
2017-09-25T14:29:23.946Z,5.07
2017-09-25T14:31:50.222Z,5.20
2017-09-25T14:34:17.398Z,5.70
2017-09-25T14:36:43.655Z,6.50
2017-09-25T14:39:09.931Z,4.80
2017-09-25T14:41:36.198Z,5.10
2017-09-25T14:44:02.463Z,4.57
2017-09-25T14:46:28.766Z,5.93
2017-09-25T14:48:55.015Z,4.83
2017-09-25T14:51:22.030Z,5.43
2017-09-25T14:53:48.311Z,4.80
2017-09-25T14:56:14.562Z,4.73
2017-09-25T14:58:40.835Z,4.83
2017-09-25T15:01:07.127Z,5.30
2017-09-25T15:03:33.402Z,5.20
2017-09-25T15:05:59.709Z,5.00
2017-09-25T15:08:25.965Z,5.83
2017-09-25T15:10:52.236Z,5.30
2017-09-25T15:13:18.518Z,5.37
2017-09-25T15:15:45.854Z,5.70
2017-09-25T15:18:12.122Z,4.50
2017-09-25T15:20:38.398Z,5.73
2017-09-25T15:23:04.686Z,4.90
2017-09-25T15:25:30.990Z,4.80
2017-09-25T15:27:57.266Z,5.30
2017-09-25T15:30:23.526Z,5.40
2017-09-25T15:32:49.823Z,5.30
2017-09-25T15:35:16.113Z,5.70
2017-09-25T15:37:42.362Z,4.97
2017-09-25T15:40:08.629Z,4.30
2017-09-25T15:42:34.942Z,5.30
2017-09-25T15:45:01.201Z,6.47
2017-09-25T15:47:27.474Z,5.60
2017-09-25T15:49:54.489Z,5.37
2017-09-25T15:52:20.759Z,5.00
2017-09-25T15:54:47.070Z,5.47
2017-09-25T15:57:13.402Z,4.67
2017-09-25T15:59:39.650Z,4.80
2017-09-25T16:02:05.942Z,4.57
2017-09-25T16:04:32.962Z,5.07
2017-09-25T16:06:59.228Z,5.50
2017-09-25T16:09:25.478Z,5.00
2017-09-25T16:11:51.794Z,4.53
2017-09-25T16:14:18.067Z,5.50
2017-09-25T16:16:44.354Z,5.63
2017-09-25T16:19:10.698Z,5.73
2017-09-25T16:21:36.971Z,6.00
2017-09-25T16:24:03.289Z,4.97
2017-09-25T16:26:29.610Z,7.93
2017-09-25T16:28:55.890Z,5.53
2017-09-25T16:31:22.958Z,5.20
2017-09-25T16:33:49.256Z,4.90
2017-09-25T16:36:15.675Z,5.53
2017-09-25T16:38:41.987Z,5.30
2017-09-25T16:41:08.535Z,4.97
2017-09-25T16:43:35.591Z,5.20
2017-09-25T16:46:01.958Z,5.47
2017-09-25T16:48:28.322Z,5.23
2017-09-25T16:50:54.749Z,5.17
2017-09-25T16:53:21.191Z,5.87
2017-09-25T16:55:47.762Z,5.50
2017-09-25T16:58:14.202Z,5.90
2017-09-25T17:00:40.756Z,5.43
2017-09-25T17:03:08.114Z,5.90
2017-09-25T17:05:35.365Z,5.77
2017-09-25T17:08:02.130Z,7.13
2017-09-25T17:10:29.078Z,6.60
2017-09-25T17:12:56.927Z,6.47
2017-09-25T17:15:25.809Z,6.83
2017-09-25T17:17:53.356Z,5.63
2017-09-25T17:20:21.677Z,6.37
2017-09-25T17:22:48.842Z,5.80
2017-09-25T17:25:15.917Z,6.43
2017-09-25T17:27:44.133Z,6.77
2017-09-25T17:30:12.295Z,6.63
2017-09-25T17:32:41.195Z,7.00
2017-09-25T17:35:09.628Z,6.90
2017-09-25T17:37:39.015Z,5.80
2017-09-25T17:40:08.061Z,7.20
2017-09-25T17:42:37.032Z,7.17
2017-09-25T17:45:05.764Z,7.40
2017-09-25T17:47:34.451Z,6.87
2017-09-25T17:50:04.732Z,7.10
2017-09-25T17:52:33.948Z,7.57
2017-09-25T17:55:02.921Z,8.77
2017-09-25T17:57:31.671Z,6.70
2017-09-25T18:00:00.635Z,7.00
2017-09-25T18:02:29.952Z,8.07
2017-09-25T18:04:59.959Z,7.80
2017-09-25T18:07:29.252Z,7.67
2017-09-25T18:09:58.032Z,7.07
2017-09-25T18:12:26.952Z,6.97
2017-09-25T18:14:55.866Z,7.40
2017-09-25T18:17:25.012Z,7.00
2017-09-25T18:19:53.869Z,7.20
2017-09-25T18:22:22.653Z,6.50
2017-09-25T18:24:51.271Z,7.80
2017-09-25T18:27:20.433Z,8.57
2017-09-25T18:29:49.178Z,7.30
2017-09-25T18:32:17.936Z,6.70
2017-09-25T18:34:47.036Z,6.73
2017-09-25T18:37:15.833Z,7.03
2017-09-25T18:39:45.737Z,5.93
2017-09-25T18:42:14.482Z,7.00
2017-09-25T18:44:43.695Z,7.30
2017-09-25T18:47:12.559Z,6.60
2017-09-25T18:49:41.290Z,6.87
2017-09-25T18:52:10.364Z,7.27
2017-09-25T18:54:39.095Z,7.10
2017-09-25T18:57:07.846Z,7.00
2017-09-25T18:59:39.954Z,6.77
2017-09-25T19:02:09.088Z,7.20
2017-09-25T19:04:38.261Z,7.43
2017-09-25T19:07:07.204Z,7.80
2017-09-25T19:09:36.425Z,6.20
2017-09-25T19:12:06.118Z,6.90
2017-09-25T19:14:34.996Z,7.07
2017-09-25T19:17:03.865Z,7.33
2017-09-25T19:19:32.627Z,7.23
2017-09-25T19:22:01.723Z,6.77
2017-09-25T19:24:31.922Z,7.57
2017-09-25T19:27:01.721Z,7.20
2017-09-25T19:29:31.319Z,8.13
2017-09-25T19:31:59.207Z,7.70
2017-09-25T19:34:29.177Z,6.80
2017-09-25T19:36:57.786Z,7.90
2017-09-25T19:39:27.004Z,7.30
2017-09-25T19:41:56.753Z,6.70
2017-09-25T19:44:25.791Z,7.40
2017-09-25T19:46:54.625Z,7.20
2017-09-25T19:49:26.967Z,7.00
2017-09-25T19:51:55.786Z,7.20
2017-09-25T19:54:26.196Z,8.07
2017-09-25T19:56:59.458Z,7.27
2017-09-25T19:59:29.690Z,6.70
2017-09-25T20:01:59.166Z,6.30
2017-09-25T20:04:27.680Z,7.30
2017-09-25T20:06:56.864Z,8.20
2017-09-25T20:09:26.093Z,6.67
2017-09-25T20:11:56.592Z,6.87
2017-09-25T20:14:32.740Z,6.37
2017-09-25T20:17:03.000Z,6.53
2017-09-25T20:19:32.050Z,7.73
2017-09-25T20:22:01.730Z,7.17
2017-09-25T20:24:30.859Z,7.33
2017-09-25T20:27:00.179Z,7.17
2017-09-25T20:29:29.030Z,6.97
2017-09-25T20:31:58.037Z,7.63
2017-09-25T20:34:27.138Z,6.50
2017-09-25T20:36:55.680Z,7.10
2017-09-25T20:39:25.228Z,7.53
2017-09-25T20:42:04.976Z,7.43
2017-09-25T20:44:37.640Z,6.93
2017-09-25T20:47:07.364Z,6.70
2017-09-25T20:49:37.020Z,7.20
2017-09-25T20:52:05.416Z,7.40
2017-09-25T20:54:34.898Z,6.47
2017-09-25T20:57:04.182Z,8.00
2017-09-25T20:59:33.056Z,7.27
2017-09-25T21:02:02.044Z,7.13
2017-09-25T21:04:32.977Z,7.27
2017-09-25T21:07:02.502Z,7.17
2017-09-25T21:09:32.646Z,6.23
2017-09-25T21:12:01.614Z,7.30
2017-09-25T21:14:28.819Z,7.97
2017-09-25T21:16:55.450Z,8.03
2017-09-25T21:19:21.857Z,7.43
2017-09-25T21:21:48.275Z,6.63
2017-09-25T21:24:14.590Z,7.07
2017-09-25T21:26:43.749Z,7.90
2017-09-25T21:29:10.066Z,8.43
2017-09-25T21:31:37.087Z,7.20
2017-09-25T21:34:03.402Z,7.90
2017-09-25T21:36:30.442Z,7.37
2017-09-25T21:38:56.691Z,6.07
2017-09-25T21:41:22.986Z,6.40
2017-09-25T21:43:49.266Z,7.50
2017-09-25T21:46:15.542Z,8.50
2017-09-25T21:48:41.855Z,7.53
2017-09-25T21:51:08.150Z,7.57
2017-09-25T21:53:34.429Z,7.17
2017-09-25T21:56:00.690Z,8.20
2017-09-25T21:58:28.669Z,8.00
2017-09-25T22:00:54.958Z,7.47
2017-09-25T22:03:21.226Z,8.07
2017-09-25T22:05:47.534Z,7.43
2017-09-25T22:08:13.803Z,9.00
2017-09-25T22:10:40.082Z,7.20
2017-09-25T22:13:06.346Z,8.10
2017-09-25T22:15:32.598Z,6.87
2017-09-25T22:17:58.875Z,8.27
2017-09-25T22:20:25.146Z,6.43
2017-09-25T22:22:52.130Z,8.10
2017-09-25T22:25:18.413Z,7.93
2017-09-25T22:27:44.694Z,7.20
2017-09-25T22:30:12.781Z,8.60
2017-09-25T22:32:39.114Z,8.13
2017-09-25T22:35:05.419Z,8.00
2017-09-25T22:37:31.711Z,7.40
2017-09-25T22:39:58.016Z,8.43
2017-09-25T22:42:24.338Z,8.40
2017-09-25T22:44:50.622Z,8.10
2017-09-25T22:47:16.898Z,8.13
2017-09-25T22:49:43.214Z,7.70
2017-09-25T22:52:09.498Z,8.37
2017-09-25T22:54:36.903Z,7.93
2017-09-25T22:57:03.979Z,8.03
2017-09-25T22:59:30.274Z,7.50
2017-09-25T23:01:57.343Z,7.00
2017-09-25T23:04:23.658Z,8.73
2017-09-25T23:06:49.950Z,9.03
2017-09-25T23:09:17.330Z,7.33
2017-09-25T23:11:45.222Z,8.77
2017-09-25T23:14:11.514Z,8.23
2017-09-25T23:16:38.553Z,7.27
2017-09-25T23:19:04.870Z,7.67
2017-09-25T23:21:31.145Z,7.90
2017-09-25T23:23:58.450Z,8.03
2017-09-25T23:26:25.723Z,7.90
2017-09-25T23:28:52.057Z,8.70
2017-09-25T23:31:22.042Z,7.30
2017-09-25T23:33:49.057Z,7.57
2017-09-25T23:36:15.350Z,7.70
2017-09-25T23:38:41.617Z,7.83
2017-09-25T23:41:07.883Z,8.73
2017-09-25T23:43:34.159Z,8.60
2017-09-25T23:46:00.411Z,8.50
2017-09-25T23:48:26.698Z,7.20
2017-09-25T23:50:52.987Z,8.17
2017-09-25T23:53:20.005Z,7.77
2017-09-25T23:55:46.290Z,9.20
2017-09-25T23:58:12.585Z,9.17
